sensor_id;sensor_type;location;lat;lon;timestamp;P1;durP1;ratioP1;P2;durP2;ratioP2
13228;SDS011;6680;53.220;10.402;2023-04-24T00:02:01;3.50;;;3.20;;
13228;SDS011;6680;53.220;10.402;2023-04-24T00:04:28;3.70;;;3.10;;
13228;SDS011;6680;53.220;10.402;2023-04-24T00:06:56;3.33;;;3.03;;
13228;SDS011;6680;53.220;10.402;2023-04-24T00:09:25;4.70;;;3.63;;
13228;SDS011;6680;53.220;10.402;2023-04-24T00:11:52;4.00;;;3.60;;
13228;SDS011;6680;53.220;10.402;2023-04-24T00:14:18;4.17;;;3.77;;
13228;SDS011;6680;53.220;10.402;2023-04-24T00:16:45;5.63;;;3.13;;
13228;SDS011;6680;53.220;10.402;2023-04-24T00:19:13;4.57;;;4.03;;
13228;SDS011;6680;53.220;10.402;2023-04-24T00:21:40;3.73;;;3.23;;
13228;SDS011;6680;53.220;10.402;2023-04-24T00:24:07;3.50;;;3.07;;
13228;SDS011;6680;53.220;10.402;2023-04-24T00:26:34;3.67;;;3.23;;
13228;SDS011;6680;53.220;10.402;2023-04-24T00:29:01;4.37;;;3.53;;
13228;SDS011;6680;53.220;10.402;2023-04-24T00:31:28;3.77;;;3.40;;
13228;SDS011;6680;53.220;10.402;2023-04-24T00:33:55;3.60;;;3.30;;
13228;SDS011;6680;53.220;10.402;2023-04-24T00:36:23;3.83;;;3.20;;
13228;SDS011;6680;53.220;10.402;2023-04-24T00:38:50;3.87;;;3.43;;
13228;SDS011;6680;53.220;10.402;2023-04-24T00:41:16;4.17;;;3.43;;
13228;SDS011;6680;53.220;10.402;2023-04-24T00:43:43;4.20;;;3.70;;
13228;SDS011;6680;53.220;10.402;2023-04-24T00:46:10;5.10;;;3.73;;
13228;SDS011;6680;53.220;10.402;2023-04-24T00:48:38;4.00;;;3.27;;
13228;SDS011;6680;53.220;10.402;2023-04-24T00:51:06;5.17;;;3.57;;
13228;SDS011;6680;53.220;10.402;2023-04-24T00:53:34;4.10;;;3.60;;
13228;SDS011;6680;53.220;10.402;2023-04-24T00:56:01;4.70;;;3.93;;
13228;SDS011;6680;53.220;10.402;2023-04-24T00:58:28;4.13;;;3.57;;
13228;SDS011;6680;53.220;10.402;2023-04-24T01:00:55;3.40;;;3.10;;
13228;SDS011;6680;53.220;10.402;2023-04-24T01:03:23;3.53;;;3.23;;
13228;SDS011;6680;53.220;10.402;2023-04-24T01:05:52;5.73;;;3.83;;
13228;SDS011;6680;53.220;10.402;2023-04-24T01:08:21;3.93;;;3.53;;
13228;SDS011;6680;53.220;10.402;2023-04-24T01:10:52;4.67;;;3.80;;
13228;SDS011;6680;53.220;10.402;2023-04-24T01:13:19;4.10;;;3.70;;
13228;SDS011;6680;53.220;10.402;2023-04-24T01:15:46;4.37;;;3.63;;
13228;SDS011;6680;53.220;10.402;2023-04-24T01:18:13;4.03;;;3.30;;
13228;SDS011;6680;53.220;10.402;2023-04-24T01:20:41;3.83;;;3.37;;
13228;SDS011;6680;53.220;10.402;2023-04-24T01:23:10;3.60;;;3.23;;
13228;SDS011;6680;53.220;10.402;2023-04-24T01:25:37;4.30;;;3.33;;
13228;SDS011;6680;53.220;10.402;2023-04-24T01:28:04;4.60;;;3.10;;
13228;SDS011;6680;53.220;10.402;2023-04-24T01:30:31;3.80;;;3.50;;
13228;SDS011;6680;53.220;10.402;2023-04-24T01:32:58;3.93;;;3.37;;
13228;SDS011;6680;53.220;10.402;2023-04-24T01:35:25;3.10;;;2.77;;
13228;SDS011;6680;53.220;10.402;2023-04-24T01:37:52;3.97;;;3.20;;
13228;SDS011;6680;53.220;10.402;2023-04-24T01:40:20;4.70;;;3.33;;
13228;SDS011;6680;53.220;10.402;2023-04-24T01:42:47;4.37;;;3.13;;
13228;SDS011;6680;53.220;10.402;2023-04-24T01:45:14;2.87;;;2.67;;
13228;SDS011;6680;53.220;10.402;2023-04-24T01:47:41;3.10;;;2.80;;
13228;SDS011;6680;53.220;10.402;2023-04-24T01:50:08;2.73;;;2.53;;
13228;SDS011;6680;53.220;10.402;2023-04-24T01:52:35;3.00;;;2.70;;
13228;SDS011;6680;53.220;10.402;2023-04-24T01:55:02;2.30;;;2.10;;
13228;SDS011;6680;53.220;10.402;2023-04-24T01:57:31;2.50;;;2.33;;
13228;SDS011;6680;53.220;10.402;2023-04-24T01:59:58;2.53;;;2.27;;
13228;SDS011;6680;53.220;10.402;2023-04-24T02:02:25;3.73;;;2.40;;
13228;SDS011;6680;53.220;10.402;2023-04-24T02:04:53;2.80;;;2.47;;
13228;SDS011;6680;53.220;10.402;2023-04-24T02:07:20;2.87;;;2.53;;
13228;SDS011;6680;53.220;10.402;2023-04-24T02:09:47;2.47;;;2.27;;
13228;SDS011;6680;53.220;10.402;2023-04-24T02:12:14;2.47;;;2.27;;
13228;SDS011;6680;53.220;10.402;2023-04-24T02:14:43;2.80;;;2.20;;
13228;SDS011;6680;53.220;10.402;2023-04-24T02:17:10;1.90;;;1.80;;
13228;SDS011;6680;53.220;10.402;2023-04-24T02:19:37;4.43;;;2.83;;
13228;SDS011;6680;53.220;10.402;2023-04-24T02:22:04;2.37;;;2.17;;
13228;SDS011;6680;53.220;10.402;2023-04-24T02:24:30;2.40;;;2.00;;
13228;SDS011;6680;53.220;10.402;2023-04-24T02:26:57;2.53;;;2.33;;
13228;SDS011;6680;53.220;10.402;2023-04-24T02:29:25;3.60;;;1.97;;
13228;SDS011;6680;53.220;10.402;2023-04-24T02:31:53;2.17;;;2.00;;
13228;SDS011;6680;53.220;10.402;2023-04-24T02:34:19;2.27;;;2.07;;
13228;SDS011;6680;53.220;10.402;2023-04-24T02:36:46;2.50;;;2.30;;
13228;SDS011;6680;53.220;10.402;2023-04-24T02:39:13;2.23;;;1.87;;
13228;SDS011;6680;53.220;10.402;2023-04-24T02:41:41;3.23;;;2.03;;
13228;SDS011;6680;53.220;10.402;2023-04-24T02:44:08;2.30;;;2.00;;
13228;SDS011;6680;53.220;10.402;2023-04-24T02:46:34;2.13;;;2.00;;
13228;SDS011;6680;53.220;10.402;2023-04-24T02:49:02;2.10;;;2.00;;
13228;SDS011;6680;53.220;10.402;2023-04-24T02:51:29;2.10;;;1.90;;
13228;SDS011;6680;53.220;10.402;2023-04-24T02:53:56;2.17;;;1.97;;
13228;SDS011;6680;53.220;10.402;2023-04-24T02:56:23;2.33;;;2.00;;
13228;SDS011;6680;53.220;10.402;2023-04-24T02:58:50;1.70;;;1.60;;
13228;SDS011;6680;53.220;10.402;2023-04-24T03:01:16;2.10;;;2.00;;
13228;SDS011;6680;53.220;10.402;2023-04-24T03:03:43;2.00;;;1.90;;
13228;SDS011;6680;53.220;10.402;2023-04-24T03:06:11;1.90;;;1.80;;
13228;SDS011;6680;53.220;10.402;2023-04-24T03:08:38;4.30;;;2.13;;
13228;SDS011;6680;53.220;10.402;2023-04-24T03:11:05;2.03;;;1.83;;
13228;SDS011;6680;53.220;10.402;2023-04-24T03:13:31;1.87;;;1.77;;
13228;SDS011;6680;53.220;10.402;2023-04-24T03:15:58;1.93;;;1.80;;
13228;SDS011;6680;53.220;10.402;2023-04-24T03:18:25;1.77;;;1.63;;
13228;SDS011;6680;53.220;10.402;2023-04-24T03:20:51;1.90;;;1.80;;
13228;SDS011;6680;53.220;10.402;2023-04-24T03:23:19;1.67;;;1.57;;
13228;SDS011;6680;53.220;10.402;2023-04-24T03:25:46;1.90;;;1.80;;
13228;SDS011;6680;53.220;10.402;2023-04-24T03:28:13;2.00;;;1.90;;
13228;SDS011;6680;53.220;10.402;2023-04-24T03:30:40;1.90;;;1.80;;
13228;SDS011;6680;53.220;10.402;2023-04-24T03:33:07;2.13;;;1.93;;
13228;SDS011;6680;53.220;10.402;2023-04-24T03:35:34;2.00;;;1.90;;
13228;SDS011;6680;53.220;10.402;2023-04-24T03:38:01;1.77;;;1.67;;
13228;SDS011;6680;53.220;10.402;2023-04-24T03:40:30;1.93;;;1.83;;
13228;SDS011;6680;53.220;10.402;2023-04-24T03:42:58;1.60;;;1.50;;
13228;SDS011;6680;53.220;10.402;2023-04-24T03:45:25;1.80;;;1.70;;
13228;SDS011;6680;53.220;10.402;2023-04-24T03:47:52;1.60;;;1.50;;
13228;SDS011;6680;53.220;10.402;2023-04-24T03:50:18;1.50;;;1.40;;
13228;SDS011;6680;53.220;10.402;2023-04-24T03:52:45;1.60;;;1.50;;
13228;SDS011;6680;53.220;10.402;2023-04-24T03:55:12;1.67;;;1.57;;
13228;SDS011;6680;53.220;10.402;2023-04-24T03:57:40;1.93;;;1.50;;
13228;SDS011;6680;53.220;10.402;2023-04-24T04:00:07;1.70;;;1.60;;
13228;SDS011;6680;53.220;10.402;2023-04-24T04:02:34;1.30;;;1.23;;
13228;SDS011;6680;53.220;10.402;2023-04-24T04:05:01;1.73;;;1.63;;
13228;SDS011;6680;53.220;10.402;2023-04-24T04:07:28;1.93;;;1.83;;
13228;SDS011;6680;53.220;10.402;2023-04-24T04:09:55;1.60;;;1.50;;
13228;SDS011;6680;53.220;10.402;2023-04-24T04:12:22;1.70;;;1.60;;
13228;SDS011;6680;53.220;10.402;2023-04-24T04:14:50;1.70;;;1.60;;
13228;SDS011;6680;53.220;10.402;2023-04-24T04:17:17;2.03;;;1.60;;
13228;SDS011;6680;53.220;10.402;2023-04-24T04:19:43;1.70;;;1.60;;
13228;SDS011;6680;53.220;10.402;2023-04-24T04:22:10;1.30;;;1.30;;
13228;SDS011;6680;53.220;10.402;2023-04-24T04:24:37;1.73;;;1.63;;
13228;SDS011;6680;53.220;10.402;2023-04-24T04:27:05;1.50;;;1.40;;
13228;SDS011;6680;53.220;10.402;2023-04-24T04:29:33;1.87;;;1.70;;
13228;SDS011;6680;53.220;10.402;2023-04-24T04:32:02;2.20;;;2.00;;
13228;SDS011;6680;53.220;10.402;2023-04-24T04:34:28;1.40;;;1.30;;
13228;SDS011;6680;53.220;10.402;2023-04-24T04:36:56;1.63;;;1.53;;
13228;SDS011;6680;53.220;10.402;2023-04-24T04:39:26;1.50;;;1.40;;
13228;SDS011;6680;53.220;10.402;2023-04-24T04:41:53;1.80;;;1.70;;
13228;SDS011;6680;53.220;10.402;2023-04-24T04:44:19;1.50;;;1.40;;
13228;SDS011;6680;53.220;10.402;2023-04-24T04:46:46;1.50;;;1.40;;
13228;SDS011;6680;53.220;10.402;2023-04-24T04:49:14;1.53;;;1.40;;
13228;SDS011;6680;53.220;10.402;2023-04-24T04:51:41;1.57;;;1.47;;
13228;SDS011;6680;53.220;10.402;2023-04-24T04:54:08;1.60;;;1.40;;
13228;SDS011;6680;53.220;10.402;2023-04-24T04:56:35;4.47;;;1.80;;
13228;SDS011;6680;53.220;10.402;2023-04-24T04:59:01;2.30;;;1.70;;
13228;SDS011;6680;53.220;10.402;2023-04-24T05:01:28;1.63;;;1.53;;
13228;SDS011;6680;53.220;10.402;2023-04-24T05:03:55;2.03;;;1.93;;
13228;SDS011;6680;53.220;10.402;2023-04-24T05:06:23;1.50;;;1.40;;
13228;SDS011;6680;53.220;10.402;2023-04-24T05:08:51;1.50;;;1.40;;
13228;SDS011;6680;53.220;10.402;2023-04-24T05:11:21;1.80;;;1.70;;
13228;SDS011;6680;53.220;10.402;2023-04-24T05:13:48;2.10;;;1.90;;
13228;SDS011;6680;53.220;10.402;2023-04-24T05:16:15;1.80;;;1.70;;
13228;SDS011;6680;53.220;10.402;2023-04-24T05:18:42;4.13;;;1.73;;
13228;SDS011;6680;53.220;10.402;2023-04-24T05:21:09;1.80;;;1.40;;
13228;SDS011;6680;53.220;10.402;2023-04-24T05:23:37;1.60;;;1.50;;
13228;SDS011;6680;53.220;10.402;2023-04-24T05:26:03;1.97;;;1.80;;
13228;SDS011;6680;53.220;10.402;2023-04-24T05:28:30;1.80;;;1.70;;
13228;SDS011;6680;53.220;10.402;2023-04-24T05:30:57;1.80;;;1.70;;
13228;SDS011;6680;53.220;10.402;2023-04-24T05:33:24;1.70;;;1.60;;
13228;SDS011;6680;53.220;10.402;2023-04-24T05:35:51;3.67;;;1.90;;
13228;SDS011;6680;53.220;10.402;2023-04-24T05:38:17;1.93;;;1.60;;
13228;SDS011;6680;53.220;10.402;2023-04-24T05:40:46;1.77;;;1.60;;
13228;SDS011;6680;53.220;10.402;2023-04-24T05:43:12;1.60;;;1.50;;
13228;SDS011;6680;53.220;10.402;2023-04-24T05:45:39;1.57;;;1.47;;
13228;SDS011;6680;53.220;10.402;2023-04-24T05:48:06;1.80;;;1.70;;
13228;SDS011;6680;53.220;10.402;2023-04-24T05:50:33;1.53;;;1.43;;
13228;SDS011;6680;53.220;10.402;2023-04-24T05:52:59;1.90;;;1.80;;
13228;SDS011;6680;53.220;10.402;2023-04-24T05:55:27;1.67;;;1.57;;
13228;SDS011;6680;53.220;10.402;2023-04-24T05:57:55;1.80;;;1.70;;
13228;SDS011;6680;53.220;10.402;2023-04-24T06:00:21;1.70;;;1.60;;
13228;SDS011;6680;53.220;10.402;2023-04-24T06:02:49;1.60;;;1.50;;
13228;SDS011;6680;53.220;10.402;2023-04-24T06:05:16;4.40;;;1.50;;
13228;SDS011;6680;53.220;10.402;2023-04-24T06:07:44;2.50;;;1.40;;
13228;SDS011;6680;53.220;10.402;2023-04-24T06:10:11;1.50;;;1.40;;
13228;SDS011;6680;53.220;10.402;2023-04-24T06:12:37;1.67;;;1.57;;
13228;SDS011;6680;53.220;10.402;2023-04-24T06:15:06;1.60;;;1.50;;
13228;SDS011;6680;53.220;10.402;2023-04-24T06:17:33;1.63;;;1.53;;
13228;SDS011;6680;53.220;10.402;2023-04-24T06:20:00;1.97;;;1.87;;
13228;SDS011;6680;53.220;10.402;2023-04-24T06:22:28;1.60;;;1.50;;
13228;SDS011;6680;53.220;10.402;2023-04-24T06:24:55;1.60;;;1.50;;
13228;SDS011;6680;53.220;10.402;2023-04-24T06:27:22;1.57;;;1.47;;
13228;SDS011;6680;53.220;10.402;2023-04-24T06:29:48;1.53;;;1.43;;
13228;SDS011;6680;53.220;10.402;2023-04-24T06:32:20;1.70;;;1.60;;
13228;SDS011;6680;53.220;10.402;2023-04-24T06:34:47;1.63;;;1.50;;
13228;SDS011;6680;53.220;10.402;2023-04-24T06:37:14;1.90;;;1.60;;
13228;SDS011;6680;53.220;10.402;2023-04-24T06:39:41;1.73;;;1.63;;
13228;SDS011;6680;53.220;10.402;2023-04-24T06:42:07;1.47;;;1.37;;
13228;SDS011;6680;53.220;10.402;2023-04-24T06:44:34;1.23;;;1.23;;
13228;SDS011;6680;53.220;10.402;2023-04-24T06:47:05;1.40;;;1.30;;
13228;SDS011;6680;53.220;10.402;2023-04-24T06:49:33;1.73;;;1.63;;
13228;SDS011;6680;53.220;10.402;2023-04-24T06:52:00;1.57;;;1.47;;
13228;SDS011;6680;53.220;10.402;2023-04-24T06:54:27;1.60;;;1.50;;
13228;SDS011;6680;53.220;10.402;2023-04-24T06:56:54;1.90;;;1.80;;
13228;SDS011;6680;53.220;10.402;2023-04-24T06:59:22;1.67;;;1.57;;
13228;SDS011;6680;53.220;10.402;2023-04-24T07:01:48;1.40;;;1.40;;
13228;SDS011;6680;53.220;10.402;2023-04-24T07:04:16;1.73;;;1.57;;
13228;SDS011;6680;53.220;10.402;2023-04-24T07:06:44;2.30;;;1.80;;
13228;SDS011;6680;53.220;10.402;2023-04-24T07:09:11;1.70;;;1.60;;
13228;SDS011;6680;53.220;10.402;2023-04-24T07:11:40;1.80;;;1.70;;
13228;SDS011;6680;53.220;10.402;2023-04-24T07:14:07;1.80;;;1.70;;
13228;SDS011;6680;53.220;10.402;2023-04-24T07:16:35;1.60;;;1.50;;
13228;SDS011;6680;53.220;10.402;2023-04-24T07:19:01;1.77;;;1.67;;
13228;SDS011;6680;53.220;10.402;2023-04-24T07:21:28;1.67;;;1.57;;
13228;SDS011;6680;53.220;10.402;2023-04-24T07:23:57;1.83;;;1.47;;
13228;SDS011;6680;53.220;10.402;2023-04-24T07:26:24;1.37;;;1.23;;
13228;SDS011;6680;53.220;10.402;2023-04-24T07:28:51;1.97;;;1.70;;
13228;SDS011;6680;53.220;10.402;2023-04-24T07:31:18;1.60;;;1.50;;
13228;SDS011;6680;53.220;10.402;2023-04-24T07:33:46;1.77;;;1.20;;
13228;SDS011;6680;53.220;10.402;2023-04-24T07:36:12;1.60;;;1.50;;
13228;SDS011;6680;53.220;10.402;2023-04-24T07:38:42;1.70;;;1.60;;
13228;SDS011;6680;53.220;10.402;2023-04-24T07:41:10;1.40;;;1.30;;
13228;SDS011;6680;53.220;10.402;2023-04-24T07:43:36;1.40;;;1.40;;
13228;SDS011;6680;53.220;10.402;2023-04-24T07:46:03;1.50;;;1.40;;
13228;SDS011;6680;53.220;10.402;2023-04-24T07:48:30;2.30;;;1.70;;
13228;SDS011;6680;53.220;10.402;2023-04-24T07:50:57;3.23;;;1.20;;
13228;SDS011;6680;53.220;10.402;2023-04-24T07:53:23;1.80;;;1.70;;
13228;SDS011;6680;53.220;10.402;2023-04-24T07:55:50;1.73;;;1.63;;
13228;SDS011;6680;53.220;10.402;2023-04-24T07:58:18;1.50;;;1.40;;
13228;SDS011;6680;53.220;10.402;2023-04-24T08:00:45;1.90;;;1.80;;
13228;SDS011;6680;53.220;10.402;2023-04-24T08:03:12;1.70;;;1.60;;
13228;SDS011;6680;53.220;10.402;2023-04-24T08:05:38;1.50;;;1.40;;
13228;SDS011;6680;53.220;10.402;2023-04-24T08:08:06;2.07;;;1.50;;
13228;SDS011;6680;53.220;10.402;2023-04-24T08:10:33;2.03;;;1.93;;
13228;SDS011;6680;53.220;10.402;2023-04-24T08:13:00;1.80;;;1.70;;
13228;SDS011;6680;53.220;10.402;2023-04-24T08:15:29;1.63;;;1.53;;
13228;SDS011;6680;53.220;10.402;2023-04-24T08:17:55;2.07;;;1.90;;
13228;SDS011;6680;53.220;10.402;2023-04-24T08:20:23;1.60;;;1.50;;
13228;SDS011;6680;53.220;10.402;2023-04-24T08:22:50;1.90;;;1.80;;
13228;SDS011;6680;53.220;10.402;2023-04-24T08:25:16;3.87;;;1.80;;
13228;SDS011;6680;53.220;10.402;2023-04-24T08:27:44;1.80;;;1.70;;
13228;SDS011;6680;53.220;10.402;2023-04-24T08:30:10;2.37;;;2.10;;
13228;SDS011;6680;53.220;10.402;2023-04-24T08:32:39;2.13;;;1.93;;
13228;SDS011;6680;53.220;10.402;2023-04-24T08:35:06;3.20;;;1.90;;
13228;SDS011;6680;53.220;10.402;2023-04-24T08:37:34;2.23;;;1.87;;
13228;SDS011;6680;53.220;10.402;2023-04-24T08:40:01;2.20;;;2.00;;
13228;SDS011;6680;53.220;10.402;2023-04-24T08:42:34;2.00;;;1.80;;
13228;SDS011;6680;53.220;10.402;2023-04-24T08:45:03;2.30;;;2.10;;
13228;SDS011;6680;53.220;10.402;2023-04-24T08:47:31;2.50;;;2.30;;
13228;SDS011;6680;53.220;10.402;2023-04-24T08:50:02;2.13;;;2.03;;
13228;SDS011;6680;53.220;10.402;2023-04-24T08:52:30;2.10;;;1.90;;
13228;SDS011;6680;53.220;10.402;2023-04-24T08:54:59;3.17;;;2.30;;
13228;SDS011;6680;53.220;10.402;2023-04-24T08:57:26;2.10;;;1.90;;
13228;SDS011;6680;53.220;10.402;2023-04-24T08:59:54;2.47;;;2.27;;
13228;SDS011;6680;53.220;10.402;2023-04-24T09:02:22;2.80;;;2.60;;
13228;SDS011;6680;53.220;10.402;2023-04-24T09:04:50;4.50;;;3.10;;
13228;SDS011;6680;53.220;10.402;2023-04-24T09:07:19;3.37;;;2.90;;
13228;SDS011;6680;53.220;10.402;2023-04-24T09:09:48;3.80;;;3.23;;
13228;SDS011;6680;53.220;10.402;2023-04-24T09:12:17;2.60;;;2.40;;
13228;SDS011;6680;53.220;10.402;2023-04-24T09:14:44;5.53;;;2.53;;
13228;SDS011;6680;53.220;10.402;2023-04-24T09:17:11;2.90;;;2.60;;
13228;SDS011;6680;53.220;10.402;2023-04-24T09:19:38;3.53;;;3.23;;
13228;SDS011;6680;53.220;10.402;2023-04-24T09:22:05;3.70;;;3.40;;
13228;SDS011;6680;53.220;10.402;2023-04-24T09:24:34;3.50;;;3.20;;
13228;SDS011;6680;53.220;10.402;2023-04-24T09:27:01;3.13;;;2.83;;
13228;SDS011;6680;53.220;10.402;2023-04-24T09:29:28;3.80;;;3.40;;
13228;SDS011;6680;53.220;10.402;2023-04-24T09:31:56;3.93;;;3.23;;
13228;SDS011;6680;53.220;10.402;2023-04-24T09:34:23;3.50;;;3.20;;
13228;SDS011;6680;53.220;10.402;2023-04-24T09:36:51;3.90;;;3.60;;
13228;SDS011;6680;53.220;10.402;2023-04-24T09:39:18;4.20;;;3.30;;
13228;SDS011;6680;53.220;10.402;2023-04-24T09:41:48;3.80;;;3.13;;
13228;SDS011;6680;53.220;10.402;2023-04-24T09:44:16;6.13;;;3.70;;
13228;SDS011;6680;53.220;10.402;2023-04-24T09:46:44;5.70;;;3.80;;
13228;SDS011;6680;53.220;10.402;2023-04-24T09:49:15;3.50;;;3.20;;
13228;SDS011;6680;53.220;10.402;2023-04-24T09:51:42;4.00;;;3.27;;
13228;SDS011;6680;53.220;10.402;2023-04-24T09:54:16;3.97;;;3.57;;
13228;SDS011;6680;53.220;10.402;2023-04-24T09:56:45;3.80;;;3.50;;
13228;SDS011;6680;53.220;10.402;2023-04-24T09:59:14;4.73;;;4.00;;
13228;SDS011;6680;53.220;10.402;2023-04-24T10:01:41;4.53;;;3.27;;
13228;SDS011;6680;53.220;10.402;2023-04-24T10:04:15;3.80;;;3.47;;
13228;SDS011;6680;53.220;10.402;2023-04-24T10:06:43;5.43;;;4.07;;
13228;SDS011;6680;53.220;10.402;2023-04-24T10:09:10;4.63;;;3.47;;
13228;SDS011;6680;53.220;10.402;2023-04-24T10:11:39;4.47;;;4.07;;
13228;SDS011;6680;53.220;10.402;2023-04-24T10:14:10;8.40;;;4.07;;
13228;SDS011;6680;53.220;10.402;2023-04-24T10:16:39;4.17;;;3.77;;
13228;SDS011;6680;53.220;10.402;2023-04-24T10:19:06;5.40;;;4.00;;
13228;SDS011;6680;53.220;10.402;2023-04-24T10:21:33;5.00;;;4.10;;
13228;SDS011;6680;53.220;10.402;2023-04-24T10:24:01;4.63;;;4.13;;
13228;SDS011;6680;53.220;10.402;2023-04-24T10:26:29;5.37;;;4.27;;
13228;SDS011;6680;53.220;10.402;2023-04-24T10:28:57;5.40;;;4.23;;
13228;SDS011;6680;53.220;10.402;2023-04-24T10:31:26;5.67;;;4.00;;
13228;SDS011;6680;53.220;10.402;2023-04-24T10:33:57;5.00;;;4.50;;
13228;SDS011;6680;53.220;10.402;2023-04-24T10:36:25;6.87;;;3.63;;
13228;SDS011;6680;53.220;10.402;2023-04-24T10:38:54;5.03;;;3.93;;
13228;SDS011;6680;53.220;10.402;2023-04-24T10:41:25;6.43;;;4.50;;
13228;SDS011;6680;53.220;10.402;2023-04-24T10:44:03;6.13;;;3.97;;
13228;SDS011;6680;53.220;10.402;2023-04-24T10:46:33;4.33;;;3.70;;
13228;SDS011;6680;53.220;10.402;2023-04-24T10:48:59;3.73;;;3.43;;
13228;SDS011;6680;53.220;10.402;2023-04-24T10:51:43;4.03;;;3.20;;
13228;SDS011;6680;53.220;10.402;2023-04-24T10:54:21;4.60;;;3.50;;
13228;SDS011;6680;53.220;10.402;2023-04-24T10:56:52;4.37;;;3.93;;
13228;SDS011;6680;53.220;10.402;2023-04-24T10:59:26;5.53;;;3.87;;
13228;SDS011;6680;53.220;10.402;2023-04-24T11:01:54;5.20;;;4.30;;
13228;SDS011;6680;53.220;10.402;2023-04-24T11:04:31;4.70;;;4.13;;
13228;SDS011;6680;53.220;10.402;2023-04-24T11:07:00;3.83;;;3.43;;
13228;SDS011;6680;53.220;10.402;2023-04-24T11:09:27;6.93;;;3.60;;
13228;SDS011;6680;53.220;10.402;2023-04-24T11:12:02;4.13;;;3.70;;
13228;SDS011;6680;53.220;10.402;2023-04-24T11:14:31;3.67;;;3.37;;
13228;SDS011;6680;53.220;10.402;2023-04-24T11:17:31;3.80;;;3.37;;
13228;SDS011;6680;53.220;10.402;2023-04-24T11:20:02;3.50;;;2.60;;
13228;SDS011;6680;53.220;10.402;2023-04-24T11:22:32;4.00;;;3.23;;
13228;SDS011;6680;53.220;10.402;2023-04-24T11:25:01;3.27;;;3.00;;
13228;SDS011;6680;53.220;10.402;2023-04-24T11:27:30;3.23;;;2.97;;
13228;SDS011;6680;53.220;10.402;2023-04-24T11:29:59;2.83;;;2.53;;
13228;SDS011;6680;53.220;10.402;2023-04-24T11:32:27;2.60;;;2.40;;
13228;SDS011;6680;53.220;10.402;2023-04-24T11:34:57;2.90;;;2.70;;
13228;SDS011;6680;53.220;10.402;2023-04-24T11:37:26;3.33;;;2.83;;
13228;SDS011;6680;53.220;10.402;2023-04-24T11:39:53;2.93;;;2.63;;
13228;SDS011;6680;53.220;10.402;2023-04-24T11:42:21;2.67;;;2.47;;
13228;SDS011;6680;53.220;10.402;2023-04-24T11:44:49;3.13;;;2.83;;
13228;SDS011;6680;53.220;10.402;2023-04-24T11:47:16;4.60;;;2.90;;
13228;SDS011;6680;53.220;10.402;2023-04-24T11:49:42;6.07;;;3.20;;
13228;SDS011;6680;53.220;10.402;2023-04-24T11:52:11;3.13;;;2.80;;
13228;SDS011;6680;53.220;10.402;2023-04-24T11:54:46;2.90;;;2.70;;
13228;SDS011;6680;53.220;10.402;2023-04-24T11:57:13;6.57;;;2.77;;
13228;SDS011;6680;53.220;10.402;2023-04-24T11:59:40;2.90;;;2.70;;
13228;SDS011;6680;53.220;10.402;2023-04-24T12:02:07;2.77;;;2.57;;
13228;SDS011;6680;53.220;10.402;2023-04-24T12:04:40;2.77;;;2.57;;
13228;SDS011;6680;53.220;10.402;2023-04-24T12:07:07;3.93;;;3.17;;
13228;SDS011;6680;53.220;10.402;2023-04-24T12:09:41;4.53;;;3.07;;
13228;SDS011;6680;53.220;10.402;2023-04-24T12:12:10;2.80;;;2.60;;
13228;SDS011;6680;53.220;10.402;2023-04-24T12:14:44;2.83;;;2.63;;
13228;SDS011;6680;53.220;10.402;2023-04-24T12:17:13;2.67;;;2.40;;
13228;SDS011;6680;53.220;10.402;2023-04-24T12:19:44;3.10;;;2.80;;
13228;SDS011;6680;53.220;10.402;2023-04-24T12:22:12;3.13;;;2.60;;
13228;SDS011;6680;53.220;10.402;2023-04-24T12:27:23;3.50;;;2.63;;
13228;SDS011;6680;53.220;10.402;2023-04-24T12:29:56;2.97;;;2.67;;
13228;SDS011;6680;53.220;10.402;2023-04-24T12:32:23;3.37;;;2.87;;
13228;SDS011;6680;53.220;10.402;2023-04-24T12:34:51;5.00;;;2.90;;
13228;SDS011;6680;53.220;10.402;2023-04-24T12:37:18;2.70;;;2.50;;
13228;SDS011;6680;53.220;10.402;2023-04-24T12:39:58;3.10;;;2.80;;
13228;SDS011;6680;53.220;10.402;2023-04-24T12:42:26;2.60;;;2.40;;
13228;SDS011;6680;53.220;10.402;2023-04-24T12:44:55;2.60;;;2.40;;
13228;SDS011;6680;53.220;10.402;2023-04-24T12:47:23;4.30;;;2.63;;
13228;SDS011;6680;53.220;10.402;2023-04-24T12:49:50;2.47;;;2.27;;
13228;SDS011;6680;53.220;10.402;2023-04-24T12:52:17;3.20;;;2.90;;
13228;SDS011;6680;53.220;10.402;2023-04-24T12:54:44;3.10;;;2.47;;
13228;SDS011;6680;53.220;10.402;2023-04-24T12:57:12;2.40;;;2.20;;
13228;SDS011;6680;53.220;10.402;2023-04-24T12:59:39;3.00;;;2.73;;
13228;SDS011;6680;53.220;10.402;2023-04-24T13:02:06;3.13;;;2.53;;
13228;SDS011;6680;53.220;10.402;2023-04-24T13:04:35;2.37;;;2.17;;
13228;SDS011;6680;53.220;10.402;2023-04-24T13:07:01;3.13;;;2.20;;
13228;SDS011;6680;53.220;10.402;2023-04-24T13:09:28;2.63;;;2.43;;
13228;SDS011;6680;53.220;10.402;2023-04-24T13:11:55;2.30;;;2.20;;
13228;SDS011;6680;53.220;10.402;2023-04-24T13:14:24;2.67;;;2.47;;
13228;SDS011;6680;53.220;10.402;2023-04-24T13:16:50;2.80;;;2.20;;
13228;SDS011;6680;53.220;10.402;2023-04-24T13:19:17;2.27;;;2.07;;
13228;SDS011;6680;53.220;10.402;2023-04-24T13:21:44;2.27;;;2.10;;
13228;SDS011;6680;53.220;10.402;2023-04-24T13:24:11;2.40;;;2.20;;
13228;SDS011;6680;53.220;10.402;2023-04-24T13:26:38;2.00;;;1.90;;
13228;SDS011;6680;53.220;10.402;2023-04-24T13:29:04;2.90;;;2.37;;
13228;SDS011;6680;53.220;10.402;2023-04-24T13:31:32;2.23;;;2.00;;
13228;SDS011;6680;53.220;10.402;2023-04-24T13:33:59;3.33;;;2.00;;
13228;SDS011;6680;53.220;10.402;2023-04-24T13:36:26;2.50;;;2.30;;
13228;SDS011;6680;53.220;10.402;2023-04-24T13:38:53;2.30;;;2.10;;
13228;SDS011;6680;53.220;10.402;2023-04-24T13:41:19;1.93;;;1.83;;
13228;SDS011;6680;53.220;10.402;2023-04-24T13:43:46;2.07;;;1.87;;
13228;SDS011;6680;53.220;10.402;2023-04-24T13:46:13;1.93;;;1.83;;
13228;SDS011;6680;53.220;10.402;2023-04-24T13:48:41;1.93;;;1.83;;
13228;SDS011;6680;53.220;10.402;2023-04-24T13:51:08;1.83;;;1.73;;
13228;SDS011;6680;53.220;10.402;2023-04-24T13:53:34;2.20;;;2.10;;
13228;SDS011;6680;53.220;10.402;2023-04-24T13:56:04;2.20;;;2.00;;
13228;SDS011;6680;53.220;10.402;2023-04-24T13:58:31;3.60;;;2.17;;
13228;SDS011;6680;53.220;10.402;2023-04-24T14:00:58;2.33;;;2.13;;
13228;SDS011;6680;53.220;10.402;2023-04-24T14:03:24;2.50;;;2.30;;
13228;SDS011;6680;53.220;10.402;2023-04-24T14:05:52;2.43;;;2.23;;
13228;SDS011;6680;53.220;10.402;2023-04-24T14:08:19;2.37;;;2.17;;
13228;SDS011;6680;53.220;10.402;2023-04-24T14:10:46;1.70;;;1.60;;
13228;SDS011;6680;53.220;10.402;2023-04-24T14:13:12;2.03;;;1.83;;
13228;SDS011;6680;53.220;10.402;2023-04-24T14:15:39;2.40;;;2.17;;
13228;SDS011;6680;53.220;10.402;2023-04-24T14:18:06;2.33;;;2.23;;
13228;SDS011;6680;53.220;10.402;2023-04-24T14:20:32;2.73;;;2.10;;
13228;SDS011;6680;53.220;10.402;2023-04-24T14:23:00;2.10;;;2.00;;
13228;SDS011;6680;53.220;10.402;2023-04-24T14:25:28;2.40;;;2.20;;
13228;SDS011;6680;53.220;10.402;2023-04-24T14:27:55;2.30;;;2.10;;
13228;SDS011;6680;53.220;10.402;2023-04-24T14:30:21;2.47;;;2.27;;
13228;SDS011;6680;53.220;10.402;2023-04-24T14:32:48;2.43;;;2.23;;
13228;SDS011;6680;53.220;10.402;2023-04-24T14:35:15;2.13;;;2.03;;
13228;SDS011;6680;53.220;10.402;2023-04-24T14:37:42;2.17;;;1.97;;
13228;SDS011;6680;53.220;10.402;2023-04-24T14:40:10;2.30;;;2.10;;
13228;SDS011;6680;53.220;10.402;2023-04-24T14:42:37;2.37;;;2.27;;
13228;SDS011;6680;53.220;10.402;2023-04-24T14:45:04;2.37;;;2.03;;
13228;SDS011;6680;53.220;10.402;2023-04-24T14:47:32;3.27;;;1.73;;
13228;SDS011;6680;53.220;10.402;2023-04-24T14:49:59;1.20;;;1.17;;
13228;SDS011;6680;53.220;10.402;2023-04-24T14:52:26;1.50;;;1.40;;
13228;SDS011;6680;53.220;10.402;2023-04-24T14:54:52;1.40;;;1.40;;